Terminal Aerodrome Forecast
Issued by NWS Knoxville/Tri Cities, TN

Home | Current Version | Previous Version | Text Only | Print | Product List | Glossary On
Versions: 1 2 3 4 5 6 7 8 9 10 11 12 13
000
FTUS44 KMRX 251720
TAFTYS
TAF
KTYS 251720Z 2518/2618 19012G20KT P6SM SCT050 BKN250
     FM252300 20009KT P6SM SCT050 BKN150
     FM260800 20006KT P6SM -SHRA VCTS BKN040CB
     FM261500 21012KT P6SM VCSH BKN050=

USA.gov is the U.S. government's official web portal to all federal, state and local government web resources and services.